sensor_id;sensor_type;location;lat;lon;timestamp;temperature;humidity
63017;DHT22;50274;45.640;11.756;2023-07-13T00:00:47;24.00;72.00
63017;DHT22;50274;45.640;11.756;2023-07-13T00:03:15;23.90;71.90
63017;DHT22;50274;45.640;11.756;2023-07-13T00:05:42;24.00;71.90
63017;DHT22;50274;45.640;11.756;2023-07-13T00:08:08;24.00;71.80
63017;DHT22;50274;45.640;11.756;2023-07-13T00:10:43;24.00;71.60
63017;DHT22;50274;45.640;11.756;2023-07-13T00:13:11;24.00;71.50
63017;DHT22;50274;45.640;11.756;2023-07-13T00:15:37;24.10;71.40
63017;DHT22;50274;45.640;11.756;2023-07-13T00:18:03;24.10;71.20
63017;DHT22;50274;45.640;11.756;2023-07-13T00:20:29;24.10;71.10
63017;DHT22;50274;45.640;11.756;2023-07-13T00:22:55;24.20;71.00
63017;DHT22;50274;45.640;11.756;2023-07-13T00:25:26;24.20;71.00
63017;DHT22;50274;45.640;11.756;2023-07-13T00:27:53;24.30;70.90
63017;DHT22;50274;45.640;11.756;2023-07-13T00:30:20;24.30;71.20
63017;DHT22;50274;45.640;11.756;2023-07-13T00:32:45;24.30;71.60
63017;DHT22;50274;45.640;11.756;2023-07-13T00:35:14;24.30;71.70
63017;DHT22;50274;45.640;11.756;2023-07-13T00:37:45;24.20;71.60
63017;DHT22;50274;45.640;11.756;2023-07-13T00:40:16;24.00;72.10
63017;DHT22;50274;45.640;11.756;2023-07-13T00:42:42;23.80;72.50
63017;DHT22;50274;45.640;11.756;2023-07-13T00:47:59;23.40;73.00
63017;DHT22;50274;45.640;11.756;2023-07-13T00:50:27;23.40;73.20
63017;DHT22;50274;45.640;11.756;2023-07-13T00:52:55;23.40;73.50
63017;DHT22;50274;45.640;11.756;2023-07-13T00:55:25;23.40;73.40
63017;DHT22;50274;45.640;11.756;2023-07-13T00:57:52;23.40;73.50
63017;DHT22;50274;45.640;11.756;2023-07-13T01:00:24;23.50;73.30
63017;DHT22;50274;45.640;11.756;2023-07-13T01:02:53;23.50;73.30
63017;DHT22;50274;45.640;11.756;2023-07-13T01:05:22;23.50;73.30
63017;DHT22;50274;45.640;11.756;2023-07-13T01:07:50;23.60;73.20
63017;DHT22;50274;45.640;11.756;2023-07-13T01:10:21;23.60;73.40
63017;DHT22;50274;45.640;11.756;2023-07-13T01:12:46;23.50;73.20
63017;DHT22;50274;45.640;11.756;2023-07-13T01:15:43;23.50;73.30
63017;DHT22;50274;45.640;11.756;2023-07-13T01:18:16;23.40;73.40
63017;DHT22;50274;45.640;11.756;2023-07-13T01:21:01;23.40;73.50
63017;DHT22;50274;45.640;11.756;2023-07-13T01:23:28;23.30;73.60
63017;DHT22;50274;45.640;11.756;2023-07-13T01:25:54;23.30;73.80
63017;DHT22;50274;45.640;11.756;2023-07-13T01:28:22;23.40;73.70
63017;DHT22;50274;45.640;11.756;2023-07-13T01:30:48;23.40;73.70
63017;DHT22;50274;45.640;11.756;2023-07-13T01:33:16;23.40;73.70
63017;DHT22;50274;45.640;11.756;2023-07-13T01:35:45;23.40;73.80
63017;DHT22;50274;45.640;11.756;2023-07-13T01:38:13;23.50;73.80
63017;DHT22;50274;45.640;11.756;2023-07-13T01:40:39;23.40;73.70
63017;DHT22;50274;45.640;11.756;2023-07-13T01:43:05;23.40;73.90
63017;DHT22;50274;45.640;11.756;2023-07-13T01:45:36;23.30;73.90
63017;DHT22;50274;45.640;11.756;2023-07-13T01:48:07;23.30;74.20
63017;DHT22;50274;45.640;11.756;2023-07-13T01:50:33;23.40;74.10
63017;DHT22;50274;45.640;11.756;2023-07-13T01:52:59;23.40;74.10
63017;DHT22;50274;45.640;11.756;2023-07-13T01:55:28;23.40;74.00
63017;DHT22;50274;45.640;11.756;2023-07-13T01:57:59;23.50;73.90
63017;DHT22;50274;45.640;11.756;2023-07-13T02:00:27;23.40;73.90
63017;DHT22;50274;45.640;11.756;2023-07-13T02:02:55;23.50;73.80
63017;DHT22;50274;45.640;11.756;2023-07-13T02:05:24;23.50;73.70
63017;DHT22;50274;45.640;11.756;2023-07-13T02:07:50;23.50;73.60
63017;DHT22;50274;45.640;11.756;2023-07-13T02:10:18;23.50;73.50
63017;DHT22;50274;45.640;11.756;2023-07-13T02:12:44;23.40;73.60
63017;DHT22;50274;45.640;11.756;2023-07-13T02:15:12;23.50;73.60
63017;DHT22;50274;45.640;11.756;2023-07-13T02:17:38;23.50;73.50
63017;DHT22;50274;45.640;11.756;2023-07-13T02:20:06;23.50;73.40
63017;DHT22;50274;45.640;11.756;2023-07-13T02:22:36;23.50;73.40
63017;DHT22;50274;45.640;11.756;2023-07-13T02:25:01;23.50;73.30
63017;DHT22;50274;45.640;11.756;2023-07-13T02:27:30;23.50;73.30
63017;DHT22;50274;45.640;11.756;2023-07-13T02:29:55;23.50;73.30
63017;DHT22;50274;45.640;11.756;2023-07-13T02:32:21;23.50;73.30
63017;DHT22;50274;45.640;11.756;2023-07-13T02:34:50;23.50;73.30
63017;DHT22;50274;45.640;11.756;2023-07-13T02:37:18;23.50;73.30
63017;DHT22;50274;45.640;11.756;2023-07-13T02:39:43;23.50;73.30
63017;DHT22;50274;45.640;11.756;2023-07-13T02:42:09;23.50;73.30
63017;DHT22;50274;45.640;11.756;2023-07-13T02:44:35;23.50;73.30
63017;DHT22;50274;45.640;11.756;2023-07-13T02:47:04;23.50;73.30
63017;DHT22;50274;45.640;11.756;2023-07-13T02:49:34;23.50;73.30
63017;DHT22;50274;45.640;11.756;2023-07-13T02:52:00;23.50;73.30
63017;DHT22;50274;45.640;11.756;2023-07-13T02:54:25;23.50;73.20
63017;DHT22;50274;45.640;11.756;2023-07-13T02:56:54;23.50;73.30
63017;DHT22;50274;45.640;11.756;2023-07-13T02:59:19;23.40;73.40
63017;DHT22;50274;45.640;11.756;2023-07-13T03:01:45;23.50;73.40
63017;DHT22;50274;45.640;11.756;2023-07-13T03:04:16;23.40;73.50
63017;DHT22;50274;45.640;11.756;2023-07-13T03:06:47;23.40;73.60
63017;DHT22;50274;45.640;11.756;2023-07-13T03:09:12;23.40;73.70
63017;DHT22;50274;45.640;11.756;2023-07-13T03:11:38;23.40;73.70
63017;DHT22;50274;45.640;11.756;2023-07-13T03:14:04;23.40;73.70
63017;DHT22;50274;45.640;11.756;2023-07-13T03:16:30;23.50;73.80
63017;DHT22;50274;45.640;11.756;2023-07-13T03:18:58;23.50;73.80
63017;DHT22;50274;45.640;11.756;2023-07-13T03:21:24;23.50;73.80
63017;DHT22;50274;45.640;11.756;2023-07-13T03:23:55;23.50;73.90
63017;DHT22;50274;45.640;11.756;2023-07-13T03:26:23;23.40;73.90
63017;DHT22;50274;45.640;11.756;2023-07-13T03:28:51;23.40;73.90
63017;DHT22;50274;45.640;11.756;2023-07-13T03:31:25;23.40;73.90
63017;DHT22;50274;45.640;11.756;2023-07-13T03:33:57;23.40;73.80
63017;DHT22;50274;45.640;11.756;2023-07-13T03:36:26;23.40;73.80
63017;DHT22;50274;45.640;11.756;2023-07-13T03:38:58;23.40;73.80
63017;DHT22;50274;45.640;11.756;2023-07-13T03:41:29;23.40;73.90
63017;DHT22;50274;45.640;11.756;2023-07-13T03:43:59;23.30;73.90
63017;DHT22;50274;45.640;11.756;2023-07-13T03:46:27;23.30;74.10
63017;DHT22;50274;45.640;11.756;2023-07-13T03:48:56;23.30;74.10
63017;DHT22;50274;45.640;11.756;2023-07-13T03:51:24;23.30;74.20
63017;DHT22;50274;45.640;11.756;2023-07-13T03:53:52;23.30;74.30
63017;DHT22;50274;45.640;11.756;2023-07-13T03:56:21;23.30;74.30
63017;DHT22;50274;45.640;11.756;2023-07-13T03:58:54;23.20;74.30
63017;DHT22;50274;45.640;11.756;2023-07-13T04:01:27;23.20;74.20
63017;DHT22;50274;45.640;11.756;2023-07-13T04:03:58;23.20;74.40
63017;DHT22;50274;45.640;11.756;2023-07-13T04:06:28;23.20;74.40
63017;DHT22;50274;45.640;11.756;2023-07-13T04:08:59;23.10;74.40
63017;DHT22;50274;45.640;11.756;2023-07-13T04:11:32;23.20;74.40
63017;DHT22;50274;45.640;11.756;2023-07-13T04:14:00;23.20;74.40
63017;DHT22;50274;45.640;11.756;2023-07-13T04:16:34;23.20;74.50
63017;DHT22;50274;45.640;11.756;2023-07-13T04:19:02;23.10;74.60
63017;DHT22;50274;45.640;11.756;2023-07-13T04:21:29;23.10;74.60
63017;DHT22;50274;45.640;11.756;2023-07-13T04:23:56;23.10;74.80
63017;DHT22;50274;45.640;11.756;2023-07-13T04:26:27;23.10;74.80
63017;DHT22;50274;45.640;11.756;2023-07-13T04:28:56;23.10;74.90
63017;DHT22;50274;45.640;11.756;2023-07-13T04:31:24;23.10;74.90
63017;DHT22;50274;45.640;11.756;2023-07-13T04:33:54;23.20;74.90
63017;DHT22;50274;45.640;11.756;2023-07-13T04:36:24;23.30;74.70
63017;DHT22;50274;45.640;11.756;2023-07-13T04:38:57;23.30;74.60
63017;DHT22;50274;45.640;11.756;2023-07-13T04:41:30;23.30;74.60
63017;DHT22;50274;45.640;11.756;2023-07-13T04:43:59;23.30;74.60
63017;DHT22;50274;45.640;11.756;2023-07-13T04:46:27;23.30;74.60
63017;DHT22;50274;45.640;11.756;2023-07-13T04:48:56;23.30;74.60
63017;DHT22;50274;45.640;11.756;2023-07-13T04:51:27;23.30;74.50
63017;DHT22;50274;45.640;11.756;2023-07-13T04:54:02;23.40;74.40
63017;DHT22;50274;45.640;11.756;2023-07-13T04:56:33;23.40;74.40
63017;DHT22;50274;45.640;11.756;2023-07-13T04:59:01;23.30;74.40
63017;DHT22;50274;45.640;11.756;2023-07-13T05:01:31;23.40;74.50
63017;DHT22;50274;45.640;11.756;2023-07-13T05:03:59;23.40;74.40
63017;DHT22;50274;45.640;11.756;2023-07-13T05:06:25;23.40;74.40
63017;DHT22;50274;45.640;11.756;2023-07-13T05:08:56;23.50;74.30
63017;DHT22;50274;45.640;11.756;2023-07-13T05:11:24;23.50;74.20
63017;DHT22;50274;45.640;11.756;2023-07-13T05:13:52;23.60;74.00
63017;DHT22;50274;45.640;11.756;2023-07-13T05:16:20;23.60;74.00
63017;DHT22;50274;45.640;11.756;2023-07-13T05:18:50;23.70;73.90
63017;DHT22;50274;45.640;11.756;2023-07-13T05:21:16;23.70;73.80
63017;DHT22;50274;45.640;11.756;2023-07-13T05:23:48;23.70;73.70
63017;DHT22;50274;45.640;11.756;2023-07-13T05:26:18;23.80;73.70
63017;DHT22;50274;45.640;11.756;2023-07-13T05:28:46;23.80;73.60
63017;DHT22;50274;45.640;11.756;2023-07-13T05:31:12;23.80;73.40
63017;DHT22;50274;45.640;11.756;2023-07-13T05:33:39;23.90;73.40
63017;DHT22;50274;45.640;11.756;2023-07-13T05:36:05;23.90;73.40
63017;DHT22;50274;45.640;11.756;2023-07-13T05:38:32;24.00;73.30
63017;DHT22;50274;45.640;11.756;2023-07-13T05:40:59;24.10;73.10
63017;DHT22;50274;45.640;11.756;2023-07-13T05:43:25;24.10;73.10
63017;DHT22;50274;45.640;11.756;2023-07-13T05:45:55;24.20;73.00
63017;DHT22;50274;45.640;11.756;2023-07-13T05:48:21;24.20;73.00
63017;DHT22;50274;45.640;11.756;2023-07-13T05:50:48;24.20;73.30
63017;DHT22;50274;45.640;11.756;2023-07-13T05:53:14;24.20;73.30
63017;DHT22;50274;45.640;11.756;2023-07-13T05:55:44;24.10;73.40
63017;DHT22;50274;45.640;11.756;2023-07-13T05:58:13;24.10;73.50
63017;DHT22;50274;45.640;11.756;2023-07-13T06:00:39;24.10;73.40
63017;DHT22;50274;45.640;11.756;2023-07-13T06:03:06;24.10;73.30
63017;DHT22;50274;45.640;11.756;2023-07-13T06:05:33;24.10;73.30
63017;DHT22;50274;45.640;11.756;2023-07-13T06:08:00;24.20;73.20
63017;DHT22;50274;45.640;11.756;2023-07-13T06:10:26;24.20;73.20
63017;DHT22;50274;45.640;11.756;2023-07-13T06:12:51;24.30;73.00
63017;DHT22;50274;45.640;11.756;2023-07-13T06:15:18;24.40;72.90
63017;DHT22;50274;45.640;11.756;2023-07-13T06:17:43;24.40;72.70
63017;DHT22;50274;45.640;11.756;2023-07-13T06:20:10;24.40;72.60
63017;DHT22;50274;45.640;11.756;2023-07-13T06:22:36;24.40;72.60
63017;DHT22;50274;45.640;11.756;2023-07-13T06:25:05;24.40;72.90
63017;DHT22;50274;45.640;11.756;2023-07-13T06:27:31;24.40;73.00
63017;DHT22;50274;45.640;11.756;2023-07-13T06:30:00;24.40;73.10
63017;DHT22;50274;45.640;11.756;2023-07-13T06:32:32;24.40;73.10
63017;DHT22;50274;45.640;11.756;2023-07-13T06:35:00;24.50;73.00
63017;DHT22;50274;45.640;11.756;2023-07-13T06:37:26;24.50;73.20
63017;DHT22;50274;45.640;11.756;2023-07-13T06:39:52;24.60;73.40
63017;DHT22;50274;45.640;11.756;2023-07-13T06:42:20;24.50;73.50
63017;DHT22;50274;45.640;11.756;2023-07-13T06:44:48;24.50;73.60
63017;DHT22;50274;45.640;11.756;2023-07-13T06:47:14;24.60;73.40
63017;DHT22;50274;45.640;11.756;2023-07-13T06:49:40;24.60;73.30
63017;DHT22;50274;45.640;11.756;2023-07-13T06:52:19;24.60;73.20
63017;DHT22;50274;45.640;11.756;2023-07-13T06:55:14;24.60;73.20
63017;DHT22;50274;45.640;11.756;2023-07-13T06:57:54;24.50;73.20
63017;DHT22;50274;45.640;11.756;2023-07-13T07:00:29;24.60;73.20
63017;DHT22;50274;45.640;11.756;2023-07-13T07:03:02;24.60;73.00
63017;DHT22;50274;45.640;11.756;2023-07-13T07:05:32;24.60;72.80
63017;DHT22;50274;45.640;11.756;2023-07-13T07:08:01;24.60;72.60
63017;DHT22;50274;45.640;11.756;2023-07-13T07:10:31;24.70;72.60
63017;DHT22;50274;45.640;11.756;2023-07-13T07:13:05;24.80;72.50
63017;DHT22;50274;45.640;11.756;2023-07-13T07:15:36;24.80;72.30
63017;DHT22;50274;45.640;11.756;2023-07-13T07:18:07;24.90;72.20
63017;DHT22;50274;45.640;11.756;2023-07-13T07:20:35;24.90;72.10
63017;DHT22;50274;45.640;11.756;2023-07-13T07:23:05;24.90;72.20
63017;DHT22;50274;45.640;11.756;2023-07-13T07:25:34;24.80;72.30
63017;DHT22;50274;45.640;11.756;2023-07-13T07:28:12;24.80;72.30
63017;DHT22;50274;45.640;11.756;2023-07-13T07:30:46;24.70;72.30
63017;DHT22;50274;45.640;11.756;2023-07-13T07:33:14;24.70;72.40
63017;DHT22;50274;45.640;11.756;2023-07-13T07:35:47;24.70;72.50
63017;DHT22;50274;45.640;11.756;2023-07-13T07:38:18;24.70;72.70
63017;DHT22;50274;45.640;11.756;2023-07-13T07:40:48;24.70;72.80
63017;DHT22;50274;45.640;11.756;2023-07-13T07:43:24;24.70;72.90
63017;DHT22;50274;45.640;11.756;2023-07-13T07:45:54;24.70;72.90
63017;DHT22;50274;45.640;11.756;2023-07-13T07:48:24;24.80;72.90
63017;DHT22;50274;45.640;11.756;2023-07-13T07:50:52;24.80;72.90
63017;DHT22;50274;45.640;11.756;2023-07-13T07:53:20;24.80;72.90
63017;DHT22;50274;45.640;11.756;2023-07-13T07:55:49;24.80;72.80
63017;DHT22;50274;45.640;11.756;2023-07-13T07:58:18;24.80;72.70
63017;DHT22;50274;45.640;11.756;2023-07-13T08:00:45;24.70;72.80
63017;DHT22;50274;45.640;11.756;2023-07-13T08:03:19;24.70;72.70
63017;DHT22;50274;45.640;11.756;2023-07-13T08:05:47;24.70;72.70
63017;DHT22;50274;45.640;11.756;2023-07-13T08:08:15;24.70;72.70
63017;DHT22;50274;45.640;11.756;2023-07-13T08:10:48;24.70;72.70
63017;DHT22;50274;45.640;11.756;2023-07-13T08:13:19;24.70;72.70
63017;DHT22;50274;45.640;11.756;2023-07-13T08:15:52;24.70;72.70
63017;DHT22;50274;45.640;11.756;2023-07-13T08:18:20;24.80;72.60
63017;DHT22;50274;45.640;11.756;2023-07-13T08:20:54;24.80;72.60
63017;DHT22;50274;45.640;11.756;2023-07-13T08:23:25;24.80;72.60
63017;DHT22;50274;45.640;11.756;2023-07-13T08:25:54;24.80;72.40
63017;DHT22;50274;45.640;11.756;2023-07-13T08:28:22;24.80;72.40
63017;DHT22;50274;45.640;11.756;2023-07-13T08:30:53;24.90;72.50
63017;DHT22;50274;45.640;11.756;2023-07-13T08:33:24;24.90;72.70
63017;DHT22;50274;45.640;11.756;2023-07-13T08:35:50;24.80;72.70
63017;DHT22;50274;45.640;11.756;2023-07-13T08:38:21;24.80;72.60
63017;DHT22;50274;45.640;11.756;2023-07-13T08:40:55;24.80;72.70
63017;DHT22;50274;45.640;11.756;2023-07-13T08:43:42;24.90;72.90
63017;DHT22;50274;45.640;11.756;2023-07-13T08:48:52;24.80;73.00
63017;DHT22;50274;45.640;11.756;2023-07-13T08:51:35;24.80;73.30
63017;DHT22;50274;45.640;11.756;2023-07-13T08:54:08;24.90;73.40
63017;DHT22;50274;45.640;11.756;2023-07-13T08:56:40;24.90;73.40
63017;DHT22;50274;45.640;11.756;2023-07-13T08:59:15;24.90;73.40
63017;DHT22;50274;45.640;11.756;2023-07-13T09:04:56;24.90;73.90
63017;DHT22;50274;45.640;11.756;2023-07-13T09:10:19;24.90;73.80
63017;DHT22;50274;45.640;11.756;2023-07-13T09:15:43;24.80;74.00
63017;DHT22;50274;45.640;11.756;2023-07-13T09:21:16;24.60;74.40
63017;DHT22;50274;45.640;11.756;2023-07-13T09:23:47;24.60;74.60
63017;DHT22;50274;45.640;11.756;2023-07-13T09:26:19;24.60;74.70
63017;DHT22;50274;45.640;11.756;2023-07-13T09:28:57;24.70;74.40
63017;DHT22;50274;45.640;11.756;2023-07-13T09:31:33;24.70;74.30
63017;DHT22;50274;45.640;11.756;2023-07-13T09:34:08;24.70;74.20
63017;DHT22;50274;45.640;11.756;2023-07-13T09:36:39;24.70;74.20
63017;DHT22;50274;45.640;11.756;2023-07-13T09:44:27;24.70;74.10
63017;DHT22;50274;45.640;11.756;2023-07-13T09:46:58;24.70;74.10
63017;DHT22;50274;45.640;11.756;2023-07-13T09:49:29;24.80;74.10
63017;DHT22;50274;45.640;11.756;2023-07-13T09:52:07;24.80;74.10
63017;DHT22;50274;45.640;11.756;2023-07-13T09:54:40;24.80;74.10
63017;DHT22;50274;45.640;11.756;2023-07-13T09:57:16;24.90;74.20
63017;DHT22;50274;45.640;11.756;2023-07-13T09:59:55;24.80;74.20
63017;DHT22;50274;45.640;11.756;2023-07-13T10:02:44;24.80;74.30
63017;DHT22;50274;45.640;11.756;2023-07-13T10:05:18;24.80;74.50
63017;DHT22;50274;45.640;11.756;2023-07-13T10:07:56;24.80;74.50
63017;DHT22;50274;45.640;11.756;2023-07-13T10:10:24;24.80;74.90
63017;DHT22;50274;45.640;11.756;2023-07-13T10:13:24;24.80;74.80
63017;DHT22;50274;45.640;11.756;2023-07-13T10:16:13;24.90;74.90
63017;DHT22;50274;45.640;11.756;2023-07-13T10:18:55;25.00;74.90
63017;DHT22;50274;45.640;11.756;2023-07-13T10:21:26;25.10;74.80
63017;DHT22;50274;45.640;11.756;2023-07-13T10:24:06;25.20;74.60
63017;DHT22;50274;45.640;11.756;2023-07-13T10:26:44;25.30;74.60
63017;DHT22;50274;45.640;11.756;2023-07-13T10:29:13;25.50;74.30
63017;DHT22;50274;45.640;11.756;2023-07-13T10:31:43;25.80;73.90
63017;DHT22;50274;45.640;11.756;2023-07-13T10:34:14;26.10;73.40
63017;DHT22;50274;45.640;11.756;2023-07-13T10:36:46;26.40;73.00
63017;DHT22;50274;45.640;11.756;2023-07-13T10:39:27;26.80;72.20
63017;DHT22;50274;45.640;11.756;2023-07-13T10:42:01;27.10;71.10
63017;DHT22;50274;45.640;11.756;2023-07-13T10:44:31;27.40;69.50
63017;DHT22;50274;45.640;11.756;2023-07-13T10:47:15;27.80;67.80
63017;DHT22;50274;45.640;11.756;2023-07-13T10:50:07;28.10;66.60
63017;DHT22;50274;45.640;11.756;2023-07-13T10:52:52;28.40;65.30
63017;DHT22;50274;45.640;11.756;2023-07-13T10:56:04;28.70;64.10
63017;DHT22;50274;45.640;11.756;2023-07-13T10:58:47;28.90;63.40
63017;DHT22;50274;45.640;11.756;2023-07-13T11:01:39;29.10;62.60
63017;DHT22;50274;45.640;11.756;2023-07-13T11:04:11;29.30;62.20
63017;DHT22;50274;45.640;11.756;2023-07-13T11:06:40;29.40;61.60
63017;DHT22;50274;45.640;11.756;2023-07-13T11:25:28;30.60;57.90
63017;DHT22;50274;45.640;11.756;2023-07-13T11:30:53;30.80;56.80
63017;DHT22;50274;45.640;11.756;2023-07-13T11:36:13;31.00;55.10
63017;DHT22;50274;45.640;11.756;2023-07-13T11:38:41;31.10;54.60
63017;DHT22;50274;45.640;11.756;2023-07-13T11:43:39;31.50;53.70
63017;DHT22;50274;45.640;11.756;2023-07-13T11:46:23;31.50;54.70
63017;DHT22;50274;45.640;11.756;2023-07-13T11:48:50;31.70;55.20
63017;DHT22;50274;45.640;11.756;2023-07-13T11:51:31;31.90;54.80
63017;DHT22;50274;45.640;11.756;2023-07-13T11:54:04;32.00;54.40
63017;DHT22;50274;45.640;11.756;2023-07-13T11:56:30;31.80;54.00
63017;DHT22;50274;45.640;11.756;2023-07-13T11:59:03;31.90;53.90
63017;DHT22;50274;45.640;11.756;2023-07-13T12:01:32;31.90;54.30
63017;DHT22;50274;45.640;11.756;2023-07-13T12:04:01;31.80;53.20
63017;DHT22;50274;45.640;11.756;2023-07-13T12:06:31;31.60;52.90
63017;DHT22;50274;45.640;11.756;2023-07-13T12:08:59;31.20;53.60
63017;DHT22;50274;45.640;11.756;2023-07-13T12:11:25;30.90;54.30
63017;DHT22;50274;45.640;11.756;2023-07-13T12:13:54;30.80;54.90
63017;DHT22;50274;45.640;11.756;2023-07-13T12:16:31;30.80;55.20
63017;DHT22;50274;45.640;11.756;2023-07-13T12:18:59;30.90;55.20
63017;DHT22;50274;45.640;11.756;2023-07-13T12:21:38;31.00;55.20
63017;DHT22;50274;45.640;11.756;2023-07-13T12:24:15;31.20;55.20
63017;DHT22;50274;45.640;11.756;2023-07-13T12:26:42;31.20;54.90
63017;DHT22;50274;45.640;11.756;2023-07-13T12:29:15;31.10;54.70
63017;DHT22;50274;45.640;11.756;2023-07-13T12:31:43;31.00;54.70
63017;DHT22;50274;45.640;11.756;2023-07-13T12:34:15;30.90;54.90
63017;DHT22;50274;45.640;11.756;2023-07-13T12:39:45;31.20;54.10
63017;DHT22;50274;45.640;11.756;2023-07-13T12:42:41;31.40;53.90
63017;DHT22;50274;45.640;11.756;2023-07-13T12:45:33;31.80;53.10
63017;DHT22;50274;45.640;11.756;2023-07-13T12:48:15;32.10;52.10
63017;DHT22;50274;45.640;11.756;2023-07-13T12:50:46;32.40;51.50
63017;DHT22;50274;45.640;11.756;2023-07-13T12:53:39;32.60;51.00
63017;DHT22;50274;45.640;11.756;2023-07-13T12:56:03;32.80;50.60
63017;DHT22;50274;45.640;11.756;2023-07-13T12:58:34;33.00;50.10
63017;DHT22;50274;45.640;11.756;2023-07-13T13:01:05;33.10;49.80
63017;DHT22;50274;45.640;11.756;2023-07-13T13:03:45;33.30;49.70
63017;DHT22;50274;45.640;11.756;2023-07-13T13:08:46;33.50;49.40
63017;DHT22;50274;45.640;11.756;2023-07-13T13:11:18;33.60;49.00
63017;DHT22;50274;45.640;11.756;2023-07-13T13:13:45;33.60;48.70
63017;DHT22;50274;45.640;11.756;2023-07-13T13:16:26;33.60;48.70
63017;DHT22;50274;45.640;11.756;2023-07-13T13:19:00;33.60;48.80
63017;DHT22;50274;45.640;11.756;2023-07-13T13:21:28;33.60;48.70
63017;DHT22;50274;45.640;11.756;2023-07-13T13:23:54;33.70;48.60
63017;DHT22;50274;45.640;11.756;2023-07-13T13:26:22;33.60;49.00
63017;DHT22;50274;45.640;11.756;2023-07-13T13:28:48;33.60;48.70
63017;DHT22;50274;45.640;11.756;2023-07-13T13:31:14;33.60;48.80
63017;DHT22;50274;45.640;11.756;2023-07-13T13:33:45;33.50;49.00
63017;DHT22;50274;45.640;11.756;2023-07-13T13:36:22;33.60;49.40
63017;DHT22;50274;45.640;11.756;2023-07-13T13:38:49;33.70;48.80
63017;DHT22;50274;45.640;11.756;2023-07-13T13:41:16;33.70;49.00
63017;DHT22;50274;45.640;11.756;2023-07-13T13:43:43;33.90;48.90
63017;DHT22;50274;45.640;11.756;2023-07-13T13:46:23;33.80;48.80
63017;DHT22;50274;45.640;11.756;2023-07-13T13:48:50;33.60;48.50
63017;DHT22;50274;45.640;11.756;2023-07-13T13:51:21;33.20;49.60
63017;DHT22;50274;45.640;11.756;2023-07-13T13:53:48;32.70;50.20
63017;DHT22;50274;45.640;11.756;2023-07-13T13:56:15;32.40;51.00
63017;DHT22;50274;45.640;11.756;2023-07-13T13:58:41;32.00;51.90
63017;DHT22;50274;45.640;11.756;2023-07-13T14:01:14;31.80;52.50
63017;DHT22;50274;45.640;11.756;2023-07-13T14:03:45;31.50;52.90
63017;DHT22;50274;45.640;11.756;2023-07-13T14:06:14;31.30;53.50
63017;DHT22;50274;45.640;11.756;2023-07-13T14:08:41;31.10;53.50
63017;DHT22;50274;45.640;11.756;2023-07-13T14:11:11;30.90;53.60
63017;DHT22;50274;45.640;11.756;2023-07-13T14:13:42;30.80;53.90
63017;DHT22;50274;45.640;11.756;2023-07-13T14:16:15;30.60;54.40
63017;DHT22;50274;45.640;11.756;2023-07-13T14:18:44;30.40;55.00
63017;DHT22;50274;45.640;11.756;2023-07-13T14:21:16;30.20;55.60
63017;DHT22;50274;45.640;11.756;2023-07-13T14:23:44;30.10;56.10
63017;DHT22;50274;45.640;11.756;2023-07-13T14:26:24;29.90;56.50
63017;DHT22;50274;45.640;11.756;2023-07-13T14:28:55;29.80;57.10
63017;DHT22;50274;45.640;11.756;2023-07-13T14:31:26;29.70;57.50
63017;DHT22;50274;45.640;11.756;2023-07-13T14:33:54;29.60;57.70
63017;DHT22;50274;45.640;11.756;2023-07-13T14:36:28;29.50;58.00
63017;DHT22;50274;45.640;11.756;2023-07-13T14:38:56;29.30;58.20
63017;DHT22;50274;45.640;11.756;2023-07-13T14:41:25;29.30;58.50
63017;DHT22;50274;45.640;11.756;2023-07-13T14:43:57;29.10;59.10
63017;DHT22;50274;45.640;11.756;2023-07-13T14:46:28;29.10;59.50
63017;DHT22;50274;45.640;11.756;2023-07-13T14:49:02;29.10;59.80
63017;DHT22;50274;45.640;11.756;2023-07-13T14:51:35;28.90;58.50
63017;DHT22;50274;45.640;11.756;2023-07-13T14:54:08;28.80;57.70
63017;DHT22;50274;45.640;11.756;2023-07-13T14:56:34;28.60;57.60
63017;DHT22;50274;45.640;11.756;2023-07-13T14:59:00;28.50;57.60
63017;DHT22;50274;45.640;11.756;2023-07-13T15:01:27;28.40;57.60
63017;DHT22;50274;45.640;11.756;2023-07-13T15:03:52;28.30;57.00
63017;DHT22;50274;45.640;11.756;2023-07-13T15:06:19;28.10;56.50
63017;DHT22;50274;45.640;11.756;2023-07-13T15:08:46;27.90;56.70
63017;DHT22;50274;45.640;11.756;2023-07-13T15:11:12;27.80;57.20
63017;DHT22;50274;45.640;11.756;2023-07-13T15:13:39;27.60;57.80
63017;DHT22;50274;45.640;11.756;2023-07-13T15:16:20;27.50;58.30
63017;DHT22;50274;45.640;11.756;2023-07-13T15:18:47;27.20;58.70
63017;DHT22;50274;45.640;11.756;2023-07-13T15:21:24;27.00;59.40
63017;DHT22;50274;45.640;11.756;2023-07-13T15:23:51;26.90;60.00
63017;DHT22;50274;45.640;11.756;2023-07-13T15:26:18;26.70;60.30
63017;DHT22;50274;45.640;11.756;2023-07-13T15:28:45;26.50;61.00
63017;DHT22;50274;45.640;11.756;2023-07-13T15:33:45;26.20;62.10
63017;DHT22;50274;45.640;11.756;2023-07-13T15:36:16;26.10;63.00
63017;DHT22;50274;45.640;11.756;2023-07-13T15:38:43;26.10;64.60
63017;DHT22;50274;45.640;11.756;2023-07-13T15:41:20;25.90;65.80
63017;DHT22;50274;45.640;11.756;2023-07-13T15:43:54;25.70;66.80
63017;DHT22;50274;45.640;11.756;2023-07-13T15:46:22;25.60;68.20
63017;DHT22;50274;45.640;11.756;2023-07-13T15:48:49;25.50;68.80
63017;DHT22;50274;45.640;11.756;2023-07-13T15:51:24;25.40;69.00
63017;DHT22;50274;45.640;11.756;2023-07-13T15:53:54;25.30;69.70
63017;DHT22;50274;45.640;11.756;2023-07-13T15:56:23;25.20;69.80
63017;DHT22;50274;45.640;11.756;2023-07-13T15:58:52;25.10;70.00
63017;DHT22;50274;45.640;11.756;2023-07-13T16:01:20;25.10;70.30
63017;DHT22;50274;45.640;11.756;2023-07-13T16:03:47;25.10;70.80
63017;DHT22;50274;45.640;11.756;2023-07-13T16:06:25;25.10;70.70
63017;DHT22;50274;45.640;11.756;2023-07-13T16:08:57;25.20;70.60
63017;DHT22;50274;45.640;11.756;2023-07-13T16:11:33;25.20;70.50
63017;DHT22;50274;45.640;11.756;2023-07-13T16:14:01;25.30;70.00
63017;DHT22;50274;45.640;11.756;2023-07-13T16:16:31;25.30;69.70
63017;DHT22;50274;45.640;11.756;2023-07-13T16:18:59;25.40;69.50
63017;DHT22;50274;45.640;11.756;2023-07-13T16:21:27;25.40;69.40
63017;DHT22;50274;45.640;11.756;2023-07-13T16:23:55;25.50;69.00
63017;DHT22;50274;45.640;11.756;2023-07-13T16:26:37;25.50;68.40
63017;DHT22;50274;45.640;11.756;2023-07-13T16:29:18;25.60;68.10
63017;DHT22;50274;45.640;11.756;2023-07-13T16:32:08;25.60;67.60